sensor_id;sensor_type;location;lat;lon;timestamp;P1;durP1;ratioP1;P2;durP2;ratioP2
64885;SDS011;51514;52.206;5.114;2023-05-31T06:33:41;15.27;;;9.35;;
64885;SDS011;51514;52.206;5.114;2023-05-31T06:36:09;15.80;;;8.00;;
64885;SDS011;51514;52.206;5.114;2023-05-31T06:38:34;17.75;;;9.20;;
64885;SDS011;51514;52.206;5.114;2023-05-31T06:40:59;17.48;;;9.00;;
64885;SDS011;51514;52.206;5.114;2023-05-31T06:43:25;15.60;;;8.43;;
64885;SDS011;51514;52.206;5.114;2023-05-31T06:45:50;18.23;;;8.20;;
64885;SDS011;51514;52.206;5.114;2023-05-31T06:48:15;17.17;;;9.07;;
64885;SDS011;51514;52.206;5.114;2023-05-31T06:50:41;15.32;;;7.75;;
64885;SDS011;51514;52.206;5.114;2023-05-31T06:53:07;14.57;;;7.93;;
64885;SDS011;51514;52.206;5.114;2023-05-31T06:55:34;17.67;;;9.27;;
64885;SDS011;51514;52.206;5.114;2023-05-31T06:58:00;15.18;;;7.95;;
64885;SDS011;51514;52.206;5.114;2023-05-31T07:00:27;16.15;;;8.32;;
64885;SDS011;51514;52.206;5.114;2023-05-31T07:02:52;15.35;;;8.55;;
64885;SDS011;51514;52.206;5.114;2023-05-31T07:05:18;14.68;;;8.60;;
64885;SDS011;51514;52.206;5.114;2023-05-31T07:07:43;14.23;;;8.00;;
64885;SDS011;51514;52.206;5.114;2023-05-31T07:10:09;16.30;;;8.43;;
64885;SDS011;51514;52.206;5.114;2023-05-31T07:12:34;27.58;;;9.27;;
64885;SDS011;51514;52.206;5.114;2023-05-31T07:15:00;15.43;;;7.63;;
64885;SDS011;51514;52.206;5.114;2023-05-31T07:17:25;12.75;;;8.38;;
64885;SDS011;51514;52.206;5.114;2023-05-31T07:19:50;15.90;;;7.75;;
64885;SDS011;51514;52.206;5.114;2023-05-31T07:22:16;15.55;;;8.13;;
64885;SDS011;51514;52.206;5.114;2023-05-31T07:24:42;14.70;;;7.72;;
64885;SDS011;51514;52.206;5.114;2023-05-31T07:27:08;14.98;;;8.02;;
64885;SDS011;51514;52.206;5.114;2023-05-31T07:29:34;16.05;;;7.97;;
64885;SDS011;51514;52.206;5.114;2023-05-31T07:32:00;16.95;;;7.80;;
64885;SDS011;51514;52.206;5.114;2023-05-31T07:34:25;12.35;;;7.13;;
64885;SDS011;51514;52.206;5.114;2023-05-31T07:36:51;15.60;;;7.07;;
64885;SDS011;51514;52.206;5.114;2023-05-31T07:39:16;12.98;;;7.30;;
64885;SDS011;51514;52.206;5.114;2023-05-31T07:41:41;12.15;;;7.50;;
64885;SDS011;51514;52.206;5.114;2023-05-31T07:44:08;13.60;;;8.25;;
64885;SDS011;51514;52.206;5.114;2023-05-31T07:46:34;15.02;;;8.27;;
64885;SDS011;51514;52.206;5.114;2023-05-31T07:49:01;11.15;;;7.13;;
64885;SDS011;51514;52.206;5.114;2023-05-31T07:51:28;15.23;;;8.13;;
64885;SDS011;51514;52.206;5.114;2023-05-31T07:53:53;13.75;;;7.13;;
64885;SDS011;51514;52.206;5.114;2023-05-31T07:56:19;13.23;;;7.32;;
64885;SDS011;51514;52.206;5.114;2023-05-31T07:58:44;13.35;;;7.53;;
64885;SDS011;51514;52.206;5.114;2023-05-31T08:01:10;12.40;;;7.35;;
64885;SDS011;51514;52.206;5.114;2023-05-31T08:03:35;12.40;;;7.80;;
64885;SDS011;51514;52.206;5.114;2023-05-31T08:06:01;15.80;;;7.53;;
64885;SDS011;51514;52.206;5.114;2023-05-31T08:08:26;11.75;;;7.38;;
64885;SDS011;51514;52.206;5.114;2023-05-31T08:10:52;12.52;;;7.07;;
64885;SDS011;51514;52.206;5.114;2023-05-31T08:13:17;14.30;;;7.25;;
64885;SDS011;51514;52.206;5.114;2023-05-31T08:15:43;12.88;;;7.13;;
64885;SDS011;51514;52.206;5.114;2023-05-31T08:18:08;13.52;;;7.85;;
64885;SDS011;51514;52.206;5.114;2023-05-31T08:20:34;15.15;;;7.93;;
64885;SDS011;51514;52.206;5.114;2023-05-31T08:22:59;12.77;;;7.72;;
64885;SDS011;51514;52.206;5.114;2023-05-31T08:25:25;12.48;;;7.30;;
64885;SDS011;51514;52.206;5.114;2023-05-31T08:27:50;15.75;;;7.82;;
64885;SDS011;51514;52.206;5.114;2023-05-31T08:30:16;17.90;;;7.90;;
64885;SDS011;51514;52.206;5.114;2023-05-31T08:32:42;15.98;;;6.75;;
64885;SDS011;51514;52.206;5.114;2023-05-31T08:35:08;13.23;;;7.00;;
64885;SDS011;51514;52.206;5.114;2023-05-31T08:37:36;11.55;;;6.25;;
64885;SDS011;51514;52.206;5.114;2023-05-31T08:40:03;17.75;;;7.03;;
64885;SDS011;51514;52.206;5.114;2023-05-31T08:42:43;10.20;;;6.70;;
64885;SDS011;51514;52.206;5.114;2023-05-31T08:45:15;15.23;;;6.68;;
64885;SDS011;51514;52.206;5.114;2023-05-31T08:47:43;13.02;;;6.32;;
64885;SDS011;51514;52.206;5.114;2023-05-31T08:50:10;10.45;;;6.35;;
64885;SDS011;51514;52.206;5.114;2023-05-31T08:52:36;11.93;;;6.90;;
64885;SDS011;51514;52.206;5.114;2023-05-31T08:55:03;12.02;;;7.88;;
64885;SDS011;51514;52.206;5.114;2023-05-31T08:57:30;14.60;;;7.32;;
64885;SDS011;51514;52.206;5.114;2023-05-31T08:59:57;14.85;;;7.00;;
64885;SDS011;51514;52.206;5.114;2023-05-31T09:02:23;12.65;;;6.70;;
64885;SDS011;51514;52.206;5.114;2023-05-31T09:04:50;11.45;;;6.80;;
64885;SDS011;51514;52.206;5.114;2023-05-31T09:07:15;11.55;;;6.18;;
64885;SDS011;51514;52.206;5.114;2023-05-31T09:09:41;11.95;;;6.63;;
64885;SDS011;51514;52.206;5.114;2023-05-31T09:12:06;12.77;;;6.55;;
64885;SDS011;51514;52.206;5.114;2023-05-31T09:14:33;11.52;;;6.25;;
64885;SDS011;51514;52.206;5.114;2023-05-31T09:16:59;9.38;;;6.10;;
64885;SDS011;51514;52.206;5.114;2023-05-31T09:19:25;17.40;;;6.88;;
64885;SDS011;51514;52.206;5.114;2023-05-31T09:21:51;10.60;;;6.10;;
64885;SDS011;51514;52.206;5.114;2023-05-31T09:24:17;10.73;;;6.03;;
64885;SDS011;51514;52.206;5.114;2023-05-31T09:26:48;11.25;;;5.93;;
64885;SDS011;51514;52.206;5.114;2023-05-31T09:29:14;11.55;;;6.80;;
64885;SDS011;51514;52.206;5.114;2023-05-31T09:31:41;11.23;;;6.50;;
64885;SDS011;51514;52.206;5.114;2023-05-31T09:34:23;9.55;;;5.57;;
64885;SDS011;51514;52.206;5.114;2023-05-31T09:36:51;11.80;;;6.72;;
64885;SDS011;51514;52.206;5.114;2023-05-31T09:39:17;11.05;;;6.93;;
64885;SDS011;51514;52.206;5.114;2023-05-31T09:41:45;12.70;;;6.00;;
64885;SDS011;51514;52.206;5.114;2023-05-31T09:44:14;12.88;;;5.97;;
64885;SDS011;51514;52.206;5.114;2023-05-31T09:46:40;9.05;;;5.93;;
64885;SDS011;51514;52.206;5.114;2023-05-31T09:49:06;12.57;;;6.70;;
64885;SDS011;51514;52.206;5.114;2023-05-31T09:51:32;12.57;;;6.53;;
64885;SDS011;51514;52.206;5.114;2023-05-31T09:54:02;11.98;;;6.60;;
64885;SDS011;51514;52.206;5.114;2023-05-31T09:56:37;11.68;;;6.20;;
64885;SDS011;51514;52.206;5.114;2023-05-31T09:59:04;15.88;;;8.07;;
64885;SDS011;51514;52.206;5.114;2023-05-31T10:01:31;12.43;;;7.28;;
64885;SDS011;51514;52.206;5.114;2023-05-31T10:03:57;14.10;;;7.22;;
64885;SDS011;51514;52.206;5.114;2023-05-31T10:06:25;11.02;;;7.18;;
64885;SDS011;51514;52.206;5.114;2023-05-31T10:08:51;13.93;;;7.10;;
64885;SDS011;51514;52.206;5.114;2023-05-31T10:11:17;13.07;;;8.00;;
64885;SDS011;51514;52.206;5.114;2023-05-31T10:13:47;15.40;;;6.95;;
64885;SDS011;51514;52.206;5.114;2023-05-31T10:16:14;13.68;;;7.10;;
64885;SDS011;51514;52.206;5.114;2023-05-31T10:18:42;16.02;;;7.22;;
64885;SDS011;51514;52.206;5.114;2023-05-31T10:21:11;12.73;;;7.07;;
64885;SDS011;51514;52.206;5.114;2023-05-31T10:23:49;15.20;;;8.65;;
64885;SDS011;51514;52.206;5.114;2023-05-31T10:26:17;13.43;;;8.05;;
64885;SDS011;51514;52.206;5.114;2023-05-31T10:31:31;11.98;;;6.75;;
64885;SDS011;51514;52.206;5.114;2023-05-31T10:36:51;13.45;;;7.78;;
64885;SDS011;51514;52.206;5.114;2023-05-31T10:42:08;13.88;;;7.47;;
64885;SDS011;51514;52.206;5.114;2023-05-31T10:44:45;11.10;;;7.13;;
64885;SDS011;51514;52.206;5.114;2023-05-31T10:47:26;15.15;;;7.70;;
64885;SDS011;51514;52.206;5.114;2023-05-31T10:49:58;11.65;;;7.20;;
64885;SDS011;51514;52.206;5.114;2023-05-31T10:52:28;13.68;;;7.78;;
64885;SDS011;51514;52.206;5.114;2023-05-31T10:55:17;15.77;;;7.90;;
64885;SDS011;51514;52.206;5.114;2023-05-31T10:57:49;11.38;;;7.80;;
64885;SDS011;51514;52.206;5.114;2023-05-31T11:00:18;10.68;;;7.47;;
64885;SDS011;51514;52.206;5.114;2023-05-31T11:02:47;11.07;;;7.35;;
64885;SDS011;51514;52.206;5.114;2023-05-31T11:05:25;14.90;;;8.75;;
64885;SDS011;51514;52.206;5.114;2023-05-31T11:07:53;15.32;;;9.00;;
64885;SDS011;51514;52.206;5.114;2023-05-31T11:10:29;19.83;;;9.20;;
64885;SDS011;51514;52.206;5.114;2023-05-31T11:12:57;14.30;;;8.30;;
64885;SDS011;51514;52.206;5.114;2023-05-31T11:15:44;12.10;;;8.20;;
64885;SDS011;51514;52.206;5.114;2023-05-31T11:18:21;12.75;;;7.40;;
64885;SDS011;51514;52.206;5.114;2023-05-31T11:20:48;12.75;;;7.32;;
64885;SDS011;51514;52.206;5.114;2023-05-31T11:25:42;14.45;;;9.30;;
64885;SDS011;51514;52.206;5.114;2023-05-31T11:28:07;13.63;;;8.13;;
64885;SDS011;51514;52.206;5.114;2023-05-31T11:30:36;17.40;;;8.80;;
64885;SDS011;51514;52.206;5.114;2023-05-31T11:33:02;16.95;;;8.63;;
64885;SDS011;51514;52.206;5.114;2023-05-31T11:35:38;12.32;;;7.93;;
64885;SDS011;51514;52.206;5.114;2023-05-31T11:38:04;13.63;;;7.80;;
64885;SDS011;51514;52.206;5.114;2023-05-31T11:40:31;14.40;;;9.00;;
64885;SDS011;51514;52.206;5.114;2023-05-31T11:43:02;13.57;;;8.93;;
64885;SDS011;51514;52.206;5.114;2023-05-31T11:45:28;18.13;;;8.52;;
64885;SDS011;51514;52.206;5.114;2023-05-31T11:50:45;14.77;;;8.95;;
64885;SDS011;51514;52.206;5.114;2023-05-31T11:53:10;14.45;;;8.77;;
64885;SDS011;51514;52.206;5.114;2023-05-31T11:55:37;14.18;;;8.20;;
64885;SDS011;51514;52.206;5.114;2023-05-31T11:58:04;11.82;;;8.27;;
64885;SDS011;51514;52.206;5.114;2023-05-31T12:00:31;12.43;;;8.27;;
64885;SDS011;51514;52.206;5.114;2023-05-31T12:02:56;17.90;;;8.30;;
64885;SDS011;51514;52.206;5.114;2023-05-31T12:05:22;13.85;;;8.02;;
64885;SDS011;51514;52.206;5.114;2023-05-31T12:07:48;12.50;;;7.28;;
64885;SDS011;51514;52.206;5.114;2023-05-31T12:10:17;11.88;;;7.35;;
64885;SDS011;51514;52.206;5.114;2023-05-31T12:12:43;14.48;;;8.05;;
64885;SDS011;51514;52.206;5.114;2023-05-31T12:15:11;15.93;;;8.30;;
64885;SDS011;51514;52.206;5.114;2023-05-31T12:17:37;15.40;;;8.38;;
64885;SDS011;51514;52.206;5.114;2023-05-31T12:20:04;15.80;;;8.55;;
64885;SDS011;51514;52.206;5.114;2023-05-31T12:22:30;15.40;;;8.02;;
64885;SDS011;51514;52.206;5.114;2023-05-31T12:24:56;15.27;;;8.05;;
64885;SDS011;51514;52.206;5.114;2023-05-31T12:27:25;12.63;;;7.47;;
64885;SDS011;51514;52.206;5.114;2023-05-31T12:29:55;14.15;;;7.00;;
64885;SDS011;51514;52.206;5.114;2023-05-31T12:32:23;12.15;;;7.28;;
64885;SDS011;51514;52.206;5.114;2023-05-31T12:35:07;10.98;;;7.32;;
64885;SDS011;51514;52.206;5.114;2023-05-31T12:37:34;16.10;;;7.95;;
64885;SDS011;51514;52.206;5.114;2023-05-31T12:40:13;12.88;;;7.45;;
64885;SDS011;51514;52.206;5.114;2023-05-31T12:42:41;12.60;;;7.25;;
64885;SDS011;51514;52.206;5.114;2023-05-31T12:45:07;12.02;;;7.10;;
64885;SDS011;51514;52.206;5.114;2023-05-31T12:47:34;13.00;;;7.32;;
64885;SDS011;51514;52.206;5.114;2023-05-31T12:50:06;11.77;;;7.20;;
64885;SDS011;51514;52.206;5.114;2023-05-31T12:52:33;16.00;;;8.13;;
64885;SDS011;51514;52.206;5.114;2023-05-31T12:54:59;15.20;;;7.45;;
64885;SDS011;51514;52.206;5.114;2023-05-31T12:57:29;12.52;;;7.60;;
64885;SDS011;51514;52.206;5.114;2023-05-31T12:59:58;14.65;;;7.28;;
64885;SDS011;51514;52.206;5.114;2023-05-31T13:02:34;15.57;;;7.22;;
64885;SDS011;51514;52.206;5.114;2023-05-31T13:05:00;11.70;;;7.60;;
64885;SDS011;51514;52.206;5.114;2023-05-31T13:07:26;11.32;;;7.65;;
64885;SDS011;51514;52.206;5.114;2023-05-31T13:09:51;13.75;;;7.88;;
64885;SDS011;51514;52.206;5.114;2023-05-31T13:12:16;12.23;;;7.75;;
64885;SDS011;51514;52.206;5.114;2023-05-31T13:14:43;15.50;;;7.07;;
64885;SDS011;51514;52.206;5.114;2023-05-31T13:17:09;13.93;;;7.75;;
64885;SDS011;51514;52.206;5.114;2023-05-31T13:19:35;18.92;;;8.23;;
64885;SDS011;51514;52.206;5.114;2023-05-31T13:22:01;15.05;;;8.02;;
64885;SDS011;51514;52.206;5.114;2023-05-31T13:24:27;22.08;;;7.47;;
64885;SDS011;51514;52.206;5.114;2023-05-31T13:26:52;11.43;;;7.47;;
64885;SDS011;51514;52.206;5.114;2023-05-31T13:29:18;15.48;;;8.57;;
64885;SDS011;51514;52.206;5.114;2023-05-31T13:31:43;13.30;;;7.93;;
64885;SDS011;51514;52.206;5.114;2023-05-31T13:34:10;15.57;;;7.70;;
64885;SDS011;51514;52.206;5.114;2023-05-31T13:36:35;13.63;;;7.65;;
64885;SDS011;51514;52.206;5.114;2023-05-31T13:39:02;14.13;;;7.75;;
64885;SDS011;51514;52.206;5.114;2023-05-31T13:41:27;11.68;;;7.93;;
64885;SDS011;51514;52.206;5.114;2023-05-31T13:43:53;14.77;;;7.97;;
64885;SDS011;51514;52.206;5.114;2023-05-31T13:46:19;12.35;;;7.53;;
64885;SDS011;51514;52.206;5.114;2023-05-31T13:48:44;14.82;;;7.90;;
64885;SDS011;51514;52.206;5.114;2023-05-31T13:51:09;11.25;;;7.68;;
64885;SDS011;51514;52.206;5.114;2023-05-31T13:53:36;13.15;;;7.57;;
64885;SDS011;51514;52.206;5.114;2023-05-31T13:56:02;16.05;;;8.32;;
64885;SDS011;51514;52.206;5.114;2023-05-31T13:58:32;13.45;;;7.50;;
64885;SDS011;51514;52.206;5.114;2023-05-31T14:00:58;11.77;;;8.13;;
64885;SDS011;51514;52.206;5.114;2023-05-31T14:03:23;14.23;;;7.75;;
64885;SDS011;51514;52.206;5.114;2023-05-31T14:05:49;12.98;;;7.95;;
64885;SDS011;51514;52.206;5.114;2023-05-31T14:08:17;11.75;;;7.68;;
64885;SDS011;51514;52.206;5.114;2023-05-31T14:10:42;14.07;;;8.30;;
64885;SDS011;51514;52.206;5.114;2023-05-31T14:13:08;15.52;;;8.05;;
64885;SDS011;51514;52.206;5.114;2023-05-31T14:15:33;12.93;;;7.25;;
64885;SDS011;51514;52.206;5.114;2023-05-31T14:17:58;15.85;;;8.77;;
64885;SDS011;51514;52.206;5.114;2023-05-31T14:20:24;13.27;;;7.80;;
64885;SDS011;51514;52.206;5.114;2023-05-31T14:22:49;10.00;;;7.93;;
64885;SDS011;51514;52.206;5.114;2023-05-31T14:25:14;22.80;;;9.30;;
64885;SDS011;51514;52.206;5.114;2023-05-31T14:27:40;21.83;;;8.63;;
64885;SDS011;51514;52.206;5.114;2023-05-31T14:30:06;11.95;;;8.55;;
64885;SDS011;51514;52.206;5.114;2023-05-31T14:32:31;14.18;;;9.07;;
64885;SDS011;51514;52.206;5.114;2023-05-31T14:34:57;14.15;;;8.27;;
64885;SDS011;51514;52.206;5.114;2023-05-31T14:37:22;15.27;;;8.25;;
64885;SDS011;51514;52.206;5.114;2023-05-31T14:39:48;18.40;;;8.30;;
64885;SDS011;51514;52.206;5.114;2023-05-31T14:42:13;15.80;;;9.27;;
64885;SDS011;51514;52.206;5.114;2023-05-31T14:44:39;14.88;;;8.70;;
64885;SDS011;51514;52.206;5.114;2023-05-31T14:47:04;15.55;;;8.73;;
64885;SDS011;51514;52.206;5.114;2023-05-31T14:49:30;13.30;;;8.57;;
64885;SDS011;51514;52.206;5.114;2023-05-31T14:51:57;15.68;;;8.93;;
64885;SDS011;51514;52.206;5.114;2023-05-31T14:54:22;16.40;;;7.57;;
64885;SDS011;51514;52.206;5.114;2023-05-31T14:56:49;14.55;;;8.13;;
64885;SDS011;51514;52.206;5.114;2023-05-31T14:59:14;17.25;;;8.30;;
64885;SDS011;51514;52.206;5.114;2023-05-31T15:01:40;13.77;;;9.05;;
64885;SDS011;51514;52.206;5.114;2023-05-31T15:04:08;11.07;;;8.10;;
64885;SDS011;51514;52.206;5.114;2023-05-31T15:06:34;14.73;;;8.63;;
64885;SDS011;51514;52.206;5.114;2023-05-31T15:09:00;17.50;;;9.13;;
64885;SDS011;51514;52.206;5.114;2023-05-31T15:11:27;11.48;;;7.57;;
64885;SDS011;51514;52.206;5.114;2023-05-31T15:13:52;14.45;;;9.18;;
64885;SDS011;51514;52.206;5.114;2023-05-31T15:16:17;13.57;;;8.73;;
64885;SDS011;51514;52.206;5.114;2023-05-31T15:18:43;15.25;;;9.13;;
64885;SDS011;51514;52.206;5.114;2023-05-31T15:21:08;15.85;;;8.85;;
64885;SDS011;51514;52.206;5.114;2023-05-31T15:23:33;14.85;;;9.02;;
64885;SDS011;51514;52.206;5.114;2023-05-31T15:25:59;14.85;;;8.65;;
64885;SDS011;51514;52.206;5.114;2023-05-31T15:28:25;12.07;;;8.68;;
64885;SDS011;51514;52.206;5.114;2023-05-31T15:30:51;13.38;;;8.18;;
64885;SDS011;51514;52.206;5.114;2023-05-31T15:33:17;14.73;;;8.38;;
64885;SDS011;51514;52.206;5.114;2023-05-31T15:35:42;15.23;;;8.32;;
64885;SDS011;51514;52.206;5.114;2023-05-31T15:38:07;16.70;;;8.90;;
64885;SDS011;51514;52.206;5.114;2023-05-31T15:40:33;14.30;;;8.95;;
64885;SDS011;51514;52.206;5.114;2023-05-31T15:42:59;16.02;;;9.02;;
64885;SDS011;51514;52.206;5.114;2023-05-31T15:45:24;15.57;;;8.85;;
64885;SDS011;51514;52.206;5.114;2023-05-31T15:47:49;13.50;;;9.00;;
64885;SDS011;51514;52.206;5.114;2023-05-31T15:50:15;15.70;;;8.85;;
64885;SDS011;51514;52.206;5.114;2023-05-31T15:52:40;15.45;;;9.10;;
64885;SDS011;51514;52.206;5.114;2023-05-31T15:55:05;15.23;;;9.13;;
64885;SDS011;51514;52.206;5.114;2023-05-31T15:57:31;14.43;;;8.82;;
64885;SDS011;51514;52.206;5.114;2023-05-31T15:59:56;14.02;;;8.95;;
64885;SDS011;51514;52.206;5.114;2023-05-31T16:02:22;14.07;;;9.23;;
64885;SDS011;51514;52.206;5.114;2023-05-31T16:04:48;14.23;;;8.48;;
64885;SDS011;51514;52.206;5.114;2023-05-31T16:07:13;16.13;;;8.65;;
64885;SDS011;51514;52.206;5.114;2023-05-31T16:09:40;14.00;;;9.73;;
64885;SDS011;51514;52.206;5.114;2023-05-31T16:12:05;19.15;;;9.57;;
64885;SDS011;51514;52.206;5.114;2023-05-31T16:14:31;18.35;;;9.82;;
64885;SDS011;51514;52.206;5.114;2023-05-31T16:16:57;16.08;;;9.50;;
64885;SDS011;51514;52.206;5.114;2023-05-31T16:19:22;13.95;;;8.45;;
64885;SDS011;51514;52.206;5.114;2023-05-31T16:21:47;19.40;;;10.05;;
64885;SDS011;51514;52.206;5.114;2023-05-31T16:24:13;13.43;;;9.38;;
64885;SDS011;51514;52.206;5.114;2023-05-31T16:26:39;14.70;;;9.25;;
64885;SDS011;51514;52.206;5.114;2023-05-31T16:29:04;12.95;;;8.75;;
64885;SDS011;51514;52.206;5.114;2023-05-31T16:31:31;18.23;;;10.73;;
64885;SDS011;51514;52.206;5.114;2023-05-31T16:33:57;14.15;;;8.27;;
64885;SDS011;51514;52.206;5.114;2023-05-31T16:36:22;14.07;;;9.00;;
64885;SDS011;51514;52.206;5.114;2023-05-31T16:38:47;14.75;;;9.18;;
64885;SDS011;51514;52.206;5.114;2023-05-31T16:41:13;17.15;;;9.85;;
64885;SDS011;51514;52.206;5.114;2023-05-31T16:43:38;13.50;;;8.30;;
64885;SDS011;51514;52.206;5.114;2023-05-31T16:46:03;14.63;;;8.57;;
64885;SDS011;51514;52.206;5.114;2023-05-31T16:48:29;16.40;;;9.40;;
64885;SDS011;51514;52.206;5.114;2023-05-31T16:50:55;12.45;;;8.88;;
64885;SDS011;51514;52.206;5.114;2023-05-31T16:53:20;15.35;;;9.45;;
64885;SDS011;51514;52.206;5.114;2023-05-31T16:55:47;14.35;;;8.63;;
64885;SDS011;51514;52.206;5.114;2023-05-31T16:58:12;12.10;;;8.52;;
64885;SDS011;51514;52.206;5.114;2023-05-31T17:00:38;13.93;;;9.05;;
64885;SDS011;51514;52.206;5.114;2023-05-31T17:03:05;21.75;;;9.20;;
64885;SDS011;51514;52.206;5.114;2023-05-31T17:05:30;17.75;;;10.80;;
64885;SDS011;51514;52.206;5.114;2023-05-31T17:07:56;18.10;;;9.38;;
64885;SDS011;51514;52.206;5.114;2023-05-31T17:10:21;16.05;;;9.82;;
64885;SDS011;51514;52.206;5.114;2023-05-31T17:12:46;16.15;;;10.15;;
64885;SDS011;51514;52.206;5.114;2023-05-31T17:15:12;17.02;;;10.32;;
64885;SDS011;51514;52.206;5.114;2023-05-31T17:17:37;17.40;;;10.52;;
64885;SDS011;51514;52.206;5.114;2023-05-31T17:20:05;16.52;;;10.52;;
64885;SDS011;51514;52.206;5.114;2023-05-31T17:22:31;21.10;;;10.00;;
64885;SDS011;51514;52.206;5.114;2023-05-31T17:24:56;18.73;;;10.07;;
64885;SDS011;51514;52.206;5.114;2023-05-31T17:27:22;16.92;;;9.65;;
64885;SDS011;51514;52.206;5.114;2023-05-31T17:29:47;13.30;;;8.43;;
64885;SDS011;51514;52.206;5.114;2023-05-31T17:32:12;14.48;;;8.07;;
64885;SDS011;51514;52.206;5.114;2023-05-31T17:34:42;14.70;;;8.15;;
64885;SDS011;51514;52.206;5.114;2023-05-31T17:37:07;13.55;;;7.43;;
64885;SDS011;51514;52.206;5.114;2023-05-31T17:39:32;15.32;;;8.30;;
64885;SDS011;51514;52.206;5.114;2023-05-31T17:42:00;12.95;;;7.28;;
64885;SDS011;51514;52.206;5.114;2023-05-31T17:44:25;16.80;;;8.48;;
64885;SDS011;51514;52.206;5.114;2023-05-31T17:46:51;16.88;;;8.25;;
64885;SDS011;51514;52.206;5.114;2023-05-31T17:49:16;11.77;;;7.30;;
64885;SDS011;51514;52.206;5.114;2023-05-31T17:51:41;14.75;;;7.35;;
64885;SDS011;51514;52.206;5.114;2023-05-31T17:54:07;14.02;;;7.68;;
64885;SDS011;51514;52.206;5.114;2023-05-31T17:56:32;12.10;;;6.90;;
64885;SDS011;51514;52.206;5.114;2023-05-31T17:58:58;12.02;;;8.70;;
64885;SDS011;51514;52.206;5.114;2023-05-31T18:01:23;14.32;;;7.55;;
64885;SDS011;51514;52.206;5.114;2023-05-31T18:03:48;12.68;;;7.35;;
64885;SDS011;51514;52.206;5.114;2023-05-31T18:06:14;11.45;;;7.55;;
64885;SDS011;51514;52.206;5.114;2023-05-31T18:08:39;12.50;;;7.75;;
64885;SDS011;51514;52.206;5.114;2023-05-31T18:11:04;14.75;;;7.18;;
64885;SDS011;51514;52.206;5.114;2023-05-31T18:13:30;13.85;;;7.07;;
64885;SDS011;51514;52.206;5.114;2023-05-31T18:15:57;12.20;;;6.60;;
64885;SDS011;51514;52.206;5.114;2023-05-31T18:18:23;16.00;;;7.03;;
64885;SDS011;51514;52.206;5.114;2023-05-31T18:20:48;14.45;;;7.40;;
64885;SDS011;51514;52.206;5.114;2023-05-31T18:23:13;16.35;;;7.40;;
64885;SDS011;51514;52.206;5.114;2023-05-31T18:25:39;12.63;;;6.68;;
64885;SDS011;51514;52.206;5.114;2023-05-31T18:28:04;9.93;;;6.65;;
64885;SDS011;51514;52.206;5.114;2023-05-31T18:30:30;12.57;;;7.68;;
64885;SDS011;51514;52.206;5.114;2023-05-31T18:32:57;11.73;;;8.63;;
64885;SDS011;51514;52.206;5.114;2023-05-31T18:35:23;12.02;;;8.10;;
64885;SDS011;51514;52.206;5.114;2023-05-31T18:37:48;13.32;;;8.50;;
64885;SDS011;51514;52.206;5.114;2023-05-31T18:40:13;12.77;;;7.72;;
64885;SDS011;51514;52.206;5.114;2023-05-31T18:42:39;12.82;;;8.30;;
64885;SDS011;51514;52.206;5.114;2023-05-31T18:45:05;12.23;;;8.43;;
64885;SDS011;51514;52.206;5.114;2023-05-31T18:47:30;16.60;;;9.35;;
64885;SDS011;51514;52.206;5.114;2023-05-31T18:49:56;16.60;;;9.48;;
64885;SDS011;51514;52.206;5.114;2023-05-31T18:52:21;16.67;;;9.65;;
64885;SDS011;51514;52.206;5.114;2023-05-31T18:54:46;13.63;;;9.02;;
64885;SDS011;51514;52.206;5.114;2023-05-31T18:57:12;17.27;;;10.40;;
64885;SDS011;51514;52.206;5.114;2023-05-31T18:59:39;16.88;;;11.25;;
64885;SDS011;51514;52.206;5.114;2023-05-31T19:02:04;12.93;;;9.85;;
64885;SDS011;51514;52.206;5.114;2023-05-31T19:04:30;16.17;;;10.75;;
64885;SDS011;51514;52.206;5.114;2023-05-31T19:06:56;18.42;;;10.45;;
64885;SDS011;51514;52.206;5.114;2023-05-31T19:09:21;14.60;;;10.88;;
64885;SDS011;51514;52.206;5.114;2023-05-31T19:11:47;16.05;;;10.23;;
64885;SDS011;51514;52.206;5.114;2023-05-31T19:14:17;17.40;;;10.18;;
64885;SDS011;51514;52.206;5.114;2023-05-31T19:16:43;16.13;;;10.55;;
64885;SDS011;51514;52.206;5.114;2023-05-31T19:19:09;19.88;;;11.73;;
64885;SDS011;51514;52.206;5.114;2023-05-31T19:21:35;16.55;;;10.40;;
64885;SDS011;51514;52.206;5.114;2023-05-31T19:24:01;14.93;;;10.65;;
64885;SDS011;51514;52.206;5.114;2023-05-31T19:26:27;23.63;;;12.38;;
64885;SDS011;51514;52.206;5.114;2023-05-31T19:28:52;18.85;;;10.75;;
64885;SDS011;51514;52.206;5.114;2023-05-31T19:31:18;18.15;;;10.07;;
64885;SDS011;51514;52.206;5.114;2023-05-31T19:33:43;17.83;;;10.50;;
64885;SDS011;51514;52.206;5.114;2023-05-31T19:36:09;19.13;;;10.93;;
64885;SDS011;51514;52.206;5.114;2023-05-31T19:38:34;17.25;;;10.70;;
64885;SDS011;51514;52.206;5.114;2023-05-31T19:41:00;17.17;;;10.77;;
64885;SDS011;51514;52.206;5.114;2023-05-31T19:43:26;15.40;;;10.05;;
64885;SDS011;51514;52.206;5.114;2023-05-31T19:45:51;16.25;;;9.80;;
64885;SDS011;51514;52.206;5.114;2023-05-31T19:48:17;15.73;;;10.07;;
64885;SDS011;51514;52.206;5.114;2023-05-31T19:50:42;15.52;;;9.45;;
64885;SDS011;51514;52.206;5.114;2023-05-31T19:53:08;18.00;;;9.52;;
64885;SDS011;51514;52.206;5.114;2023-05-31T19:55:34;14.80;;;9.90;;
64885;SDS011;51514;52.206;5.114;2023-05-31T19:58:01;15.30;;;9.20;;
64885;SDS011;51514;52.206;5.114;2023-05-31T20:00:27;19.88;;;8.98;;
64885;SDS011;51514;52.206;5.114;2023-05-31T20:02:52;17.35;;;9.65;;
64885;SDS011;51514;52.206;5.114;2023-05-31T20:05:17;14.05;;;9.30;;
64885;SDS011;51514;52.206;5.114;2023-05-31T20:07:43;18.58;;;9.32;;
64885;SDS011;51514;52.206;5.114;2023-05-31T20:10:08;19.23;;;9.40;;
64885;SDS011;51514;52.206;5.114;2023-05-31T20:12:34;18.88;;;10.43;;
64885;SDS011;51514;52.206;5.114;2023-05-31T20:14:59;17.15;;;9.93;;
64885;SDS011;51514;52.206;5.114;2023-05-31T20:17:24;16.38;;;9.65;;
64885;SDS011;51514;52.206;5.114;2023-05-31T20:19:50;17.05;;;10.10;;
64885;SDS011;51514;52.206;5.114;2023-05-31T20:22:15;18.05;;;10.23;;
64885;SDS011;51514;52.206;5.114;2023-05-31T20:24:40;18.13;;;10.30;;
64885;SDS011;51514;52.206;5.114;2023-05-31T20:27:06;17.67;;;10.77;;
64885;SDS011;51514;52.206;5.114;2023-05-31T20:29:31;16.00;;;9.65;;
64885;SDS011;51514;52.206;5.114;2023-05-31T20:31:57;15.85;;;9.25;;
64885;SDS011;51514;52.206;5.114;2023-05-31T20:34:23;17.10;;;9.70;;
64885;SDS011;51514;52.206;5.114;2023-05-31T20:36:48;16.77;;;9.32;;
64885;SDS011;51514;52.206;5.114;2023-05-31T20:39:15;17.25;;;9.93;;
64885;SDS011;51514;52.206;5.114;2023-05-31T20:41:41;16.25;;;9.80;;
64885;SDS011;51514;52.206;5.114;2023-05-31T20:44:06;14.75;;;9.70;;
64885;SDS011;51514;52.206;5.114;2023-05-31T20:46:33;18.80;;;9.90;;
64885;SDS011;51514;52.206;5.114;2023-05-31T20:48:58;16.60;;;10.57;;
64885;SDS011;51514;52.206;5.114;2023-05-31T20:51:23;16.83;;;9.73;;
64885;SDS011;51514;52.206;5.114;2023-05-31T20:53:49;17.88;;;9.10;;
64885;SDS011;51514;52.206;5.114;2023-05-31T20:56:14;23.52;;;11.52;;
64885;SDS011;51514;52.206;5.114;2023-05-31T20:58:40;19.05;;;9.13;;
64885;SDS011;51514;52.206;5.114;2023-05-31T21:01:05;24.70;;;11.32;;
64885;SDS011;51514;52.206;5.114;2023-05-31T21:03:31;12.90;;;10.05;;
64885;SDS011;51514;52.206;5.114;2023-05-31T21:05:56;16.88;;;10.40;;
64885;SDS011;51514;52.206;5.114;2023-05-31T21:08:21;16.38;;;10.57;;
64885;SDS011;51514;52.206;5.114;2023-05-31T21:10:47;17.42;;;11.73;;
64885;SDS011;51514;52.206;5.114;2023-05-31T21:13:12;21.67;;;11.30;;
64885;SDS011;51514;52.206;5.114;2023-05-31T21:15:37;20.30;;;11.15;;